Time;durP1;ratioP1;P1;durP2;ratioP2;P2;SDS_P1;SDS_P2;PMS_P1;PMS_P2;Temp;Humidity;BMP_temperature;BMP_pressure;BME280_temperature;BME280_humidity;BME280_pressure;Samples;Min_cycle;Max_cycle;Signal;HPM_P1;HPM_P2
2022/03/21 00:00:25;;;;;;;;;;;;;;;8.41;24.36;101845.31;4486464;31;33124;-64
2022/03/21 00:02:54;;;;;;;;;;;;;;;8.53;24.87;101847.56;4482692;31;33303;-65
2022/03/21 00:05:21;;;;;;;;;;;;;;;7.69;26.12;101847.47;4489995;31;34108;-66
2022/03/21 00:07:49;;;;;;;;;;;;;;;8.40;25.09;101840.88;4482677;31;31753;-65
2022/03/21 00:10:17;;;;;;;;;;;;;;;8.40;24.81;101844.41;4483886;32;34214;-63
2022/03/21 00:12:45;;;;;;;;;;;;;;;7.96;25.32;101836.91;4492560;31;34171;-64
2022/03/21 00:15:12;;;;;;;;;;;;;;;8.55;24.23;101839.50;4485665;31;33022;-65
2022/03/21 00:17:41;;;;;;;;;;;;;;;8.74;23.76;101839.78;4483928;31;33200;-65
2022/03/21 00:20:09;;;;;;;;;;;;;;;8.74;23.07;101840.66;4483998;31;34838;-64
2022/03/21 00:22:37;;;;;;;;;;;;;;;8.07;25.25;101845.47;4486073;31;34236;-64
2022/03/21 00:25:06;;;;;;;;;;;;;;;8.13;25.29;101846.16;4483339;31;32837;-65
2022/03/21 00:27:34;;;;;;;;;;;;;;;7.99;25.32;101840.34;4487023;31;32503;-64
2022/03/21 00:30:05;;;;;;;;;;;;;;;8.63;23.92;101841.00;4488266;31;34117;-63
2022/03/21 00:32:33;;;;;;;;;;;;;;;8.02;25.44;101837.59;4485267;31;35410;-63
2022/03/21 00:35:01;;;;;;;;;;;;;;;7.97;25.55;101836.87;4483339;31;34345;-63
2022/03/21 00:37:30;;;;;;;;;;;;;;;8.33;23.75;101839.31;4488964;31;34378;-64
2022/03/21 00:39:58;;;;;;;;;;;;;;;8.05;25.32;101842.81;4487505;31;33956;-63
2022/03/21 00:42:25;;;;;;;;;;;;;;;8.06;24.64;101828.59;4468113;32;34238;-64
2022/03/21 00:44:56;;;;;;;;;;;;;;;7.39;26.77;101835.94;4483203;31;34189;-65
2022/03/21 00:47:24;;;;;;;;;;;;;;;7.86;25.70;101838.97;4486574;31;32647;-65
2022/03/21 00:49:52;;;;;;;;;;;;;;;8.06;25.44;101827.72;4485171;31;34158;-64
2022/03/21 00:52:20;;;;;;;;;;;;;;;8.32;24.56;101834.91;4484648;31;33786;-64
2022/03/21 00:54:47;;;;;;;;;;;;;;;8.23;25.29;101829.84;4482698;31;33941;-64
2022/03/21 00:57:15;;;;;;;;;;;;;;;7.67;25.88;101826.22;4488168;31;32417;-61
2022/03/21 00:59:42;;;;;;;;;;;;;;;7.36;25.78;101830.69;4485341;31;32057;-61
2022/03/21 01:02:12;;;;;;;;;;;;;;;8.27;24.34;101828.81;4484719;31;34222;-62
2022/03/21 01:04:40;;;;;;;;;;;;;;;8.12;25.13;101830.16;4492503;31;35132;-62
2022/03/21 01:07:07;;;;;;;;;;;;;;;8.10;25.24;101824.91;4485201;31;34164;-63
2022/03/21 01:09:35;;;;;;;;;;;;;;;8.23;24.13;101829.84;4497342;31;33889;-61
2022/03/21 01:12:04;;;;;;;;;;;;;;;8.09;23.62;101820.50;4492208;31;34466;-63
2022/03/21 01:14:32;;;;;;;;;;;;;;;7.98;24.19;101824.41;4487141;31;34318;-61
2022/03/21 01:17:00;;;;;;;;;;;;;;;7.99;23.93;101818.16;4494564;31;33214;-65
2022/03/21 01:19:30;;;;;;;;;;;;;;;7.55;26.82;101823.03;4487934;31;33797;-64
2022/03/21 01:21:57;;;;;;;;;;;;;;;7.21;25.23;101823.97;4484389;31;34332;-65
2022/03/21 01:24:25;;;;;;;;;;;;;;;7.12;25.04;101821.56;4492324;31;33979;-62
2022/03/21 01:26:53;;;;;;;;;;;;;;;6.90;25.66;101827.50;4485419;31;33485;-62
2022/03/21 01:29:20;;;;;;;;;;;;;;;6.84;25.73;101826.75;4485792;31;34115;-65
2022/03/21 01:31:48;;;;;;;;;;;;;;;5.96;28.32;101825.34;4490645;31;34826;-61
2022/03/21 01:34:16;;;;;;;;;;;;;;;6.60;27.71;101818.50;4494515;31;35313;-61
2022/03/21 01:36:43;;;;;;;;;;;;;;;6.49;27.41;101823.22;4491019;31;34423;-66
2022/03/21 01:39:11;;;;;;;;;;;;;;;6.66;27.05;101818.34;4486198;31;33911;-62
2022/03/21 01:41:39;;;;;;;;;;;;;;;6.21;28.04;101813.25;4498131;31;33871;-62
2022/03/21 01:44:08;;;;;;;;;;;;;;;6.47;26.82;101819.72;4490793;31;34297;-65
2022/03/21 01:46:37;;;;;;;;;;;;;;;6.43;27.24;101826.03;4488298;31;33362;-63
2022/03/21 01:49:05;;;;;;;;;;;;;;;7.11;25.31;101812.72;4493192;31;34113;-62
2022/03/21 01:51:34;;;;;;;;;;;;;;;6.42;27.79;101809.19;4500813;31;34272;-62
2022/03/21 01:56:48;;;;;;;;;;;;;;;6.60;27.31;101817.63;4490403;31;34462;-61
2022/03/21 01:59:17;;;;;;;;;;;;;;;6.78;27.41;101813.63;4493570;31;33638;-61
2022/03/21 02:01:44;;;;;;;;;;;;;;;7.34;26.27;101809.41;4487767;31;35439;-61
2022/03/21 02:04:13;;;;;;;;;;;;;;;7.44;25.61;101812.66;4491061;31;33064;-61
2022/03/21 02:06:44;;;;;;;;;;;;;;;7.63;24.63;101807.69;4489557;31;33068;-62
2022/03/21 02:09:12;;;;;;;;;;;;;;;7.62;24.52;101800.63;4487595;31;33215;-61
2022/03/21 02:11:40;;;;;;;;;;;;;;;7.39;25.31;101809.28;4485804;31;33082;-63
2022/03/21 02:14:09;;;;;;;;;;;;;;;6.78;27.39;101810.97;4474236;31;35298;-61
2022/03/21 02:16:37;;;;;;;;;;;;;;;6.47;27.77;101806.41;4493226;31;31664;-64
2022/03/21 02:19:13;;;;;;;;;;;;;;;6.52;28.04;101804.53;4484892;31;33722;-63
2022/03/21 02:21:59;;;;;;;;;;;;;;;6.75;27.30;101801.28;4486908;31;34633;-61
2022/03/21 02:24:27;;;;;;;;;;;;;;;7.44;25.38;101802.00;4486082;31;34431;-63
2022/03/21 02:26:54;;;;;;;;;;;;;;;6.90;26.50;101795.53;4486998;31;33549;-61
2022/03/21 02:29:22;;;;;;;;;;;;;;;6.45;27.44;101800.25;4471719;31;32885;-61
2022/03/21 02:31:50;;;;;;;;;;;;;;;7.09;26.51;101795.87;4475595;31;34286;-61
2022/03/21 02:34:18;;;;;;;;;;;;;;;6.66;27.31;101796.19;4471152;32;34015;-61
2022/03/21 02:36:46;;;;;;;;;;;;;;;6.98;26.39;101796.19;4485688;31;33977;-60
2022/03/21 02:39:13;;;;;;;;;;;;;;;7.15;26.27;101794.84;4472117;31;33849;-63
2022/03/21 02:41:41;;;;;;;;;;;;;;;6.85;26.75;101797.44;4471494;31;34317;-63
2022/03/21 02:44:09;;;;;;;;;;;;;;;6.62;27.36;101792.72;4483968;31;32969;-60
2022/03/21 02:46:37;;;;;;;;;;;;;;;6.69;27.35;101788.12;4483735;31;33237;-60
2022/03/21 02:49:06;;;;;;;;;;;;;;;7.06;26.77;101790.66;4488456;31;32950;-61
2022/03/21 02:51:37;;;;;;;;;;;;;;;6.11;28.52;101793.09;4480878;31;33945;-62
2022/03/21 02:54:05;;;;;;;;;;;;;;;6.13;28.71;101791.28;4482841;31;32867;-64
2022/03/21 02:56:33;;;;;;;;;;;;;;;6.29;28.62;101792.66;4484408;31;34427;-61
2022/03/21 02:59:00;;;;;;;;;;;;;;;6.33;28.18;101792.59;4485355;31;32553;-61
2022/03/21 03:01:28;;;;;;;;;;;;;;;6.54;28.12;101798.22;4485875;31;34297;-62
2022/03/21 03:03:56;;;;;;;;;;;;;;;6.88;27.25;101792.03;4489353;31;33011;-61
2022/03/21 03:06:24;;;;;;;;;;;;;;;6.17;28.09;101790.31;4486671;31;32300;-63
2022/03/21 03:08:52;;;;;;;;;;;;;;;6.52;27.69;101797.41;4491315;31;34155;-63
2022/03/21 03:11:19;;;;;;;;;;;;;;;7.30;25.14;101790.91;4472701;31;33153;-60
2022/03/21 03:13:47;;;;;;;;;;;;;;;6.49;27.82;101789.50;4484013;31;34142;-64
2022/03/21 03:16:14;;;;;;;;;;;;;;;6.02;28.61;101788.88;4484370;31;34075;-61
2022/03/21 03:18:44;;;;;;;;;;;;;;;6.28;28.11;101795.34;4483230;31;34331;-60
2022/03/21 03:21:13;;;;;;;;;;;;;;;6.53;27.91;101787.62;4490881;31;33864;-62
2022/03/21 03:23:41;;;;;;;;;;;;;;;6.95;26.81;101787.41;4488624;31;35245;-60
2022/03/21 03:26:09;;;;;;;;;;;;;;;6.70;27.77;101790.72;4472146;31;34020;-61
2022/03/21 03:28:38;;;;;;;;;;;;;;;6.51;28.17;101792.13;4492484;31;34256;-61
2022/03/21 03:31:15;;;;;;;;;;;;;;;7.05;26.35;101788.03;4486622;31;34331;-61
2022/03/21 03:33:45;;;;;;;;;;;;;;;6.53;27.36;101792.97;4489259;31;34039;-62
2022/03/21 03:36:15;;;;;;;;;;;;;;;6.90;25.95;101791.97;4484207;31;33888;-61
2022/03/21 03:38:43;;;;;;;;;;;;;;;7.23;26.14;101790.19;4490038;31;32988;-61
2022/03/21 03:41:10;;;;;;;;;;;;;;;6.92;26.34;101791.03;4486573;31;34241;-62
2022/03/21 03:43:38;;;;;;;;;;;;;;;7.30;25.44;101799.75;4486946;31;33761;-63
2022/03/21 03:46:06;;;;;;;;;;;;;;;7.15;26.33;101801.03;4494516;31;33182;-65
2022/03/21 03:48:34;;;;;;;;;;;;;;;7.10;25.62;101791.47;4490631;31;35194;-62
2022/03/21 03:51:03;;;;;;;;;;;;;;;7.09;25.82;101803.88;4493537;31;34445;-62
2022/03/21 03:53:31;;;;;;;;;;;;;;;7.03;25.60;101801.41;4486075;31;33011;-61
2022/03/21 03:55:59;;;;;;;;;;;;;;;6.33;27.64;101811.22;4487339;31;32443;-63
2022/03/21 03:58:26;;;;;;;;;;;;;;;6.28;27.08;101801.53;4485976;32;32898;-62
2022/03/21 04:00:54;;;;;;;;;;;;;;;6.43;26.65;101802.97;4485877;31;33035;-61
2022/03/21 04:06:09;;;;;;;;;;;;;;;6.46;26.91;101815.31;4496290;31;34379;-61
2022/03/21 04:08:37;;;;;;;;;;;;;;;6.40;26.33;101811.00;4501465;31;34096;-63
2022/03/21 04:11:04;;;;;;;;;;;;;;;6.14;27.02;101806.31;4493710;31;33020;-61
2022/03/21 04:13:32;;;;;;;;;;;;;;;6.11;27.01;101802.87;4490668;31;34440;-62
2022/03/21 04:16:00;;;;;;;;;;;;;;;5.80;28.23;101801.72;4490041;31;33660;-63
2022/03/21 04:18:27;;;;;;;;;;;;;;;5.47;28.54;101805.12;4486043;31;35188;-61
2022/03/21 04:21:15;;;;;;;;;;;;;;;6.06;27.94;101808.28;4491959;31;34927;-63
2022/03/21 04:23:42;;;;;;;;;;;;;;;6.32;27.37;101809.44;4491390;31;34091;-64
2022/03/21 04:26:12;;;;;;;;;;;;;;;6.66;26.50;101810.34;4492642;31;33476;-61
2022/03/21 04:28:39;;;;;;;;;;;;;;;6.35;27.06;101814.69;4489121;31;33119;-62
2022/03/21 04:31:07;;;;;;;;;;;;;;;6.18;27.32;101808.00;4495696;31;34156;-61
2022/03/21 04:33:35;;;;;;;;;;;;;;;6.19;27.40;101806.19;4493344;31;33903;-61
2022/03/21 04:36:03;;;;;;;;;;;;;;;5.98;27.87;101815.56;4489636;31;31957;-63
2022/03/21 04:38:30;;;;;;;;;;;;;;;6.11;27.28;101809.06;4493641;31;33782;-61
2022/03/21 04:40:58;;;;;;;;;;;;;;;6.01;28.19;101819.03;4494304;31;32933;-63
2022/03/21 04:43:26;;;;;;;;;;;;;;;6.30;27.52;101815.69;4484187;31;35252;-62
2022/03/21 04:45:56;;;;;;;;;;;;;;;6.41;27.03;101811.88;4482952;31;35014;-61
2022/03/21 04:48:30;;;;;;;;;;;;;;;6.11;27.79;101818.81;4475062;31;33583;-63
2022/03/21 04:50:59;;;;;;;;;;;;;;;6.29;26.84;101816.59;4483402;31;34117;-62
2022/03/21 04:53:33;;;;;;;;;;;;;;;6.12;26.82;101816.13;4487181;31;33998;-62
2022/03/21 04:56:03;;;;;;;;;;;;;;;6.00;27.85;101821.69;4483598;31;33225;-63
2022/03/21 04:58:32;;;;;;;;;;;;;;;6.10;27.84;101822.38;4483953;31;34057;-63
2022/03/21 05:01:02;;;;;;;;;;;;;;;5.80;28.55;101825.66;4487665;31;35574;-63
2022/03/21 05:03:32;;;;;;;;;;;;;;;5.97;27.81;101828.00;4484961;31;33117;-62
2022/03/21 05:06:03;;;;;;;;;;;;;;;6.39;26.97;101825.22;4484170;31;32031;-62
2022/03/21 05:08:32;;;;;;;;;;;;;;;6.48;26.46;101826.78;4483617;31;34071;-61
2022/03/21 05:11:03;;;;;;;;;;;;;;;6.20;26.65;101824.78;4483942;31;33089;-63
2022/03/21 05:13:33;;;;;;;;;;;;;;;6.17;27.28;101829.31;4487434;31;33029;-62
2022/03/21 05:16:01;;;;;;;;;;;;;;;6.40;26.43;101831.44;4481651;31;33535;-62
2022/03/21 05:18:34;;;;;;;;;;;;;;;5.96;27.36;101828.00;4480898;31;33774;-62
2022/03/21 05:21:06;;;;;;;;;;;;;;;6.02;26.77;101831.41;4487532;31;35668;-62
2022/03/21 05:31:59;;;;;;;;;;;;;;;6.69;26.61;101839.56;4486760;31;34237;-60
2022/03/21 05:37:17;;;;;;;;;;;;;;;6.79;26.79;101839.31;4483422;31;33174;-61
2022/03/21 05:42:34;;;;;;;;;;;;;;;7.50;25.74;101851.59;4484938;31;33223;-61
2022/03/21 05:45:02;;;;;;;;;;;;;;;7.76;25.69;101838.38;4486238;31;34486;-62
2022/03/21 05:48:50;;;;;;;;;;;;;;;7.52;25.81;101847.97;4467235;31;33181;-61
2022/03/21 05:50:21;;;;;;;;;;;;;;;7.47;26.22;101850.75;4480635;31;34294;-64
2022/03/21 05:52:49;;;;;;;;;;;;;;;7.99;25.65;101842.16;4492500;31;35223;-62
2022/03/21 05:55:19;;;;;;;;;;;;;;;8.45;24.65;101848.75;4482706;31;33903;-63
2022/03/21 05:57:48;;;;;;;;;;;;;;;8.58;25.56;101842.09;4483010;31;33379;-62
2022/03/21 06:00:20;;;;;;;;;;;;;;;8.15;26.04;101844.31;4490569;31;32723;-62
2022/03/21 06:02:50;;;;;;;;;;;;;;;8.58;25.58;101845.62;4481047;31;34255;-65
2022/03/21 06:05:19;;;;;;;;;;;;;;;8.58;26.13;101836.75;4484871;31;34065;-63
2022/03/21 06:07:49;;;;;;;;;;;;;;;8.31;26.70;101844.66;4493208;31;33323;-63
2022/03/21 06:10:18;;;;;;;;;;;;;;;8.83;26.11;101855.50;4488876;31;32812;-66
2022/03/21 06:12:49;;;;;;;;;;;;;;;9.10;24.84;101846.50;4482818;31;34241;-64
2022/03/21 06:15:19;;;;;;;;;;;;;;;9.51;24.50;101853.97;4486462;31;32582;-65
2022/03/21 06:17:49;;;;;;;;;;;;;;;9.82;24.40;101851.00;4480860;31;33125;-65
2022/03/21 06:20:19;;;;;;;;;;;;;;;10.09;24.96;101845.53;4483270;31;34828;-64
2022/03/21 06:22:47;;;;;;;;;;;;;;;10.04;24.10;101853.72;4485229;31;34384;-64
2022/03/21 06:25:16;;;;;;;;;;;;;;;9.98;25.05;101856.63;4489570;31;32688;-62
2022/03/21 06:27:48;;;;;;;;;;;;;;;10.36;24.18;101856.97;4481671;31;32230;-63
2022/03/21 06:30:18;;;;;;;;;;;;;;;10.18;23.71;101859.41;4482229;31;34318;-61
2022/03/21 06:32:50;;;;;;;;;;;;;;;9.47;24.03;101866.59;4483876;31;34060;-61
2022/03/21 06:35:20;;;;;;;;;;;;;;;10.01;23.56;101867.22;4481476;31;33030;-61
2022/03/21 06:37:49;;;;;;;;;;;;;;;9.38;24.09;101858.91;4481202;31;34419;-63
2022/03/21 06:40:20;;;;;;;;;;;;;;;9.81;23.74;101865.31;4478876;31;34236;-62
2022/03/21 06:42:50;;;;;;;;;;;;;;;10.43;23.76;101859.34;4483617;31;34995;-64
2022/03/21 06:45:19;;;;;;;;;;;;;;;10.30;23.07;101862.56;4479978;31;34230;-61
2022/03/21 06:47:48;;;;;;;;;;;;;;;9.85;24.10;101872.28;4480915;31;32550;-66
2022/03/21 06:50:18;;;;;;;;;;;;;;;10.11;23.20;101860.59;4486241;31;33663;-61
2022/03/21 06:52:46;;;;;;;;;;;;;;;9.37;25.72;101867.81;4485295;31;34431;-63
2022/03/21 06:55:25;;;;;;;;;;;;;;;9.86;23.13;101875.84;4481658;31;32866;-64
2022/03/21 06:57:55;;;;;;;;;;;;;;;10.63;22.95;101866.56;4487520;31;32911;-62
2022/03/21 07:00:24;;;;;;;;;;;;;;;10.15;22.61;101872.06;4481567;31;34398;-64
2022/03/21 07:02:54;;;;;;;;;;;;;;;10.36;22.59;101873.03;4479918;31;34132;-64
2022/03/21 07:05:21;;;;;;;;;;;;;;;10.38;23.47;101871.16;4488155;31;34175;-61
2022/03/21 07:07:52;;;;;;;;;;;;;;;10.11;22.48;101873.09;4482750;31;32006;-62
2022/03/21 07:10:21;;;;;;;;;;;;;;;9.38;23.83;101871.38;4483748;31;34984;-61
2022/03/21 07:12:49;;;;;;;;;;;;;;;9.05;23.92;101879.62;4483969;31;34269;-63
2022/03/21 07:15:18;;;;;;;;;;;;;;;9.20;23.75;101884.47;4488640;31;34217;-63
2022/03/21 07:17:49;;;;;;;;;;;;;;;9.06;24.57;101889.41;4484624;31;32086;-62
2022/03/21 07:20:20;;;;;;;;;;;;;;;8.61;25.04;101885.56;4494901;31;35290;-62
2022/03/21 07:22:51;;;;;;;;;;;;;;;8.92;24.76;101883.66;4488461;31;34237;-60
2022/03/21 07:25:20;;;;;;;;;;;;;;;8.94;24.99;101888.03;4482317;31;34045;-61
2022/03/21 07:27:51;;;;;;;;;;;;;;;9.43;24.29;101885.44;4492729;31;33256;-61
2022/03/21 07:30:21;;;;;;;;;;;;;;;9.39;23.39;101889.16;4491127;31;35623;-63
2022/03/21 07:32:49;;;;;;;;;;;;;;;9.59;22.50;101888.44;4490061;31;33247;-62
2022/03/21 07:35:18;;;;;;;;;;;;;;;9.14;23.25;101887.34;4485643;31;34706;-62
2022/03/21 07:37:50;;;;;;;;;;;;;;;9.06;23.84;101887.63;4491845;31;33467;-63
2022/03/21 07:40:19;;;;;;;;;;;;;;;9.21;23.27;101890.66;4480188;31;34028;-63
2022/03/21 07:42:48;;;;;;;;;;;;;;;8.46;24.51;101886.06;4446670;31;1254110;-64
2022/03/21 07:48:05;;;;;;;;;;;;;;;9.16;24.04;101888.16;4484676;31;34489;-62
2022/03/21 07:50:35;;;;;;;;;;;;;;;9.50;23.70;101892.31;4487046;31;34545;-63
2022/03/21 07:53:04;;;;;;;;;;;;;;;10.00;23.80;101890.44;4483964;31;32898;-63
2022/03/21 07:55:32;;;;;;;;;;;;;;;9.73;22.68;101892.34;4487225;31;34001;-62
2022/03/21 07:58:02;;;;;;;;;;;;;;;11.01;21.52;101888.19;4494603;31;33719;-63
2022/03/21 08:00:32;;;;;;;;;;;;;;;11.41;20.97;101891.81;4486715;31;35255;-62
2022/03/21 08:03:02;;;;;;;;;;;;;;;11.30;20.57;101889.62;4485185;31;33252;-62
2022/03/21 08:05:32;;;;;;;;;;;;;;;11.57;20.32;101890.19;4491048;31;34507;-62
2022/03/21 08:08:00;;;;;;;;;;;;;;;12.28;19.70;101893.19;4486969;31;33177;-63
2022/03/21 08:10:29;;;;;;;;;;;;;;;12.93;19.06;101890.91;4484596;31;33949;-64
2022/03/21 08:12:57;;;;;;;;;;;;;;;14.68;18.48;101882.34;4488279;31;35287;-63
2022/03/21 08:15:28;;;;;;;;;;;;;;;15.52;17.56;101880.94;4485172;31;32821;-62
2022/03/21 08:17:57;;;;;;;;;;;;;;;15.52;16.95;101887.22;4486251;31;33864;-62
2022/03/21 08:20:33;;;;;;;;;;;;;;;15.47;16.88;101883.06;4486510;31;34288;-62
2022/03/21 08:23:03;;;;;;;;;;;;;;;15.04;17.10;101885.66;4481083;31;33971;-63
2022/03/21 08:25:31;;;;;;;;;;;;;;;15.11;17.35;101887.87;4482943;31;34648;-64
2022/03/21 08:28:00;;;;;;;;;;;;;;;14.45;17.66;101878.25;4492795;31;33302;-62
2022/03/21 08:30:32;;;;;;;;;;;;;;;12.52;19.29;101885.78;4486460;31;33975;-63
2022/03/21 08:33:02;;;;;;;;;;;;;;;12.50;19.67;101884.13;4482840;31;34148;-64
2022/03/21 08:35:30;;;;;;;;;;;;;;;12.75;19.15;101890.03;4491448;31;34064;-61
2022/03/21 08:37:59;;;;;;;;;;;;;;;12.25;19.83;101879.91;4488961;31;33053;-62
2022/03/21 08:40:28;;;;;;;;;;;;;;;11.57;20.88;101887.50;4489504;31;35244;-61
2022/03/21 08:42:57;;;;;;;;;;;;;;;11.76;20.73;101882.19;4485385;31;34378;-62
2022/03/21 08:45:25;;;;;;;;;;;;;;;10.52;21.96;101878.63;4487337;31;34802;-61
2022/03/21 08:47:54;;;;;;;;;;;;;;;11.40;21.01;101874.00;4482921;31;32648;-62
2022/03/21 08:50:31;;;;;;;;;;;;;;;11.97;20.33;101874.09;4493427;31;32726;-62
2022/03/21 08:53:07;;;;;;;;;;;;;;;11.92;20.68;101866.28;4490287;31;33244;-62
2022/03/21 08:55:41;;;;;;;;;;;;;;;12.21;20.21;101867.59;4489734;31;33082;-64
2022/03/21 08:58:15;;;;;;;;;;;;;;;11.76;20.56;101862.53;4491145;31;32177;-62
2022/03/21 09:00:53;;;;;;;;;;;;;;;11.58;20.81;101867.78;4488452;31;34392;-63
2022/03/21 09:03:30;;;;;;;;;;;;;;;11.98;20.58;101862.47;4488317;31;33501;-62
2022/03/21 09:06:03;;;;;;;;;;;;;;;12.28;20.30;101869.03;4491791;31;35050;-63
2022/03/21 09:08:38;;;;;;;;;;;;;;;12.15;20.54;101859.81;4487437;31;33587;-62
2022/03/21 09:11:13;;;;;;;;;;;;;;;11.68;20.91;101862.88;4488795;31;33867;-64
2022/03/21 09:13:44;;;;;;;;;;;;;;;12.19;20.91;101855.19;4487787;31;34712;-62
2022/03/21 09:16:14;;;;;;;;;;;;;;;12.53;20.18;101860.66;4490836;31;33092;-62
2022/03/21 09:18:52;;;;;;;;;;;;;;;12.51;19.83;101851.78;4485893;31;32080;-62
2022/03/21 09:21:24;;;;;;;;;;;;;;;13.14;19.39;101853.13;4487333;31;32606;-64
2022/03/21 09:24:00;;;;;;;;;;;;;;;13.22;19.00;101857.13;4487518;31;34195;-62
2022/03/21 09:26:32;;;;;;;;;;;;;;;13.12;19.20;101855.88;4495660;31;33737;-63
2022/03/21 09:29:11;;;;;;;;;;;;;;;13.61;19.44;101845.25;4493608;31;33828;-61
2022/03/21 09:31:52;;;;;;;;;;;;;;;13.73;19.36;101841.00;4486291;31;32984;-63
2022/03/21 09:34:20;;;;;;;;;;;;;;;13.48;18.91;101839.69;4476129;31;33957;-70
2022/03/21 09:36:54;;;;;;;;;;;;;;;14.16;18.25;101841.34;4483788;31;32797;-61
2022/03/21 09:39:29;;;;;;;;;;;;;;;13.16;19.80;101835.06;4496552;31;32864;-62
2022/03/21 09:41:59;;;;;;;;;;;;;;;13.65;18.69;101835.19;4490386;31;33039;-61
2022/03/21 09:44:36;;;;;;;;;;;;;;;13.75;18.56;101839.97;4470832;31;34243;-63
2022/03/21 09:48:08;;;;;;;;;;;;;;;13.23;18.83;101840.06;4492260;31;32871;-61
2022/03/21 09:49:58;;;;;;;;;;;;;;;13.68;18.77;101838.59;4478751;31;32671;-61
2022/03/21 09:52:30;;;;;;;;;;;;;;;13.68;18.48;101838.59;4472350;32;32684;-65
2022/03/21 09:54:59;;;;;;;;;;;;;;;13.88;18.19;101839.31;4477966;31;32882;-64
2022/03/21 09:57:27;;;;;;;;;;;;;;;14.02;18.04;101838.53;4493815;31;34174;-62
2022/03/21 09:59:58;;;;;;;;;;;;;;;14.09;17.93;101845.31;4483527;31;33295;-62
2022/03/21 10:02:30;;;;;;;;;;;;;;;14.59;16.46;101831.69;4490877;31;34674;-61
2022/03/21 10:05:01;;;;;;;;;;;;;;;14.45;17.56;101823.50;4482060;31;34444;-62
2022/03/21 10:07:37;;;;;;;;;;;;;;;14.86;16.70;101828.28;4487687;31;32888;-62
2022/03/21 10:10:12;;;;;;;;;;;;;;;14.56;16.45;101818.38;4489981;31;33125;-63
2022/03/21 10:12:44;;;;;;;;;;;;;;;15.17;16.46;101815.66;4486578;31;35366;-60
2022/03/21 10:15:19;;;;;;;;;;;;;;;14.43;16.86;101818.19;4483314;31;34339;-62
2022/03/21 10:18:09;;;;;;;;;;;;;;;15.18;18.37;101812.87;4486440;31;35204;-61
2022/03/21 10:20:42;;;;;;;;;;;;;;;15.57;17.09;101817.63;4476427;31;33436;-63
2022/03/21 10:23:22;;;;;;;;;;;;;;;15.99;16.14;101805.09;4486742;31;34179;-61
2022/03/21 10:25:55;;;;;;;;;;;;;;;16.30;15.44;101803.06;4486203;31;34238;-62
2022/03/21 10:28:36;;;;;;;;;;;;;;;15.19;16.13;101805.66;4484852;31;34145;-65
2022/03/21 10:31:05;;;;;;;;;;;;;;;16.16;16.26;101803.97;4483724;31;34417;-62
2022/03/21 10:33:34;;;;;;;;;;;;;;;16.50;15.74;101794.50;4492805;31;34460;-61
2022/03/21 10:36:12;;;;;;;;;;;;;;;16.62;15.40;101795.50;4490070;31;32861;-62
2022/03/21 10:38:45;;;;;;;;;;;;;;;16.30;15.70;101797.66;4489704;31;32547;-63
2022/03/21 10:41:37;;;;;;;;;;;;;;;16.36;14.87;101789.16;4485182;31;32194;-63
2022/03/21 10:44:12;;;;;;;;;;;;;;;16.38;15.12;101789.06;4485379;31;33994;-63
2022/03/21 10:46:41;;;;;;;;;;;;;;;15.99;15.68;101783.47;4485572;31;34442;-62
2022/03/21 10:49:11;;;;;;;;;;;;;;;16.66;15.42;101777.22;4473626;31;33697;-62
2022/03/21 10:51:53;;;;;;;;;;;;;;;16.01;15.69;101775.25;4488046;31;34005;-62
2022/03/21 10:54:40;;;;;;;;;;;;;;;16.73;15.53;101771.31;4491035;31;33677;-62
2022/03/21 10:57:33;;;;;;;;;;;;;;;17.16;15.55;101770.19;4488414;31;34156;-62
2022/03/21 11:00:14;;;;;;;;;;;;;;;17.36;14.41;101772.34;4495734;31;33259;-62
2022/03/21 11:02:56;;;;;;;;;;;;;;;17.24;14.13;101765.13;4490450;31;33203;-60
2022/03/21 11:05:33;;;;;;;;;;;;;;;15.53;15.50;101762.09;4490358;31;34197;-61
2022/03/21 11:08:07;;;;;;;;;;;;;;;15.91;15.39;101761.50;4477977;31;34235;-61
2022/03/21 11:10:45;;;;;;;;;;;;;;;16.68;15.67;101759.94;4489027;31;34176;-62
2022/03/21 11:13:16;;;;;;;;;;;;;;;17.00;14.83;101752.31;4494954;31;33611;-62
2022/03/21 11:15:47;;;;;;;;;;;;;;;15.91;14.95;101750.69;4486008;31;34941;-64
2022/03/21 11:18:21;;;;;;;;;;;;;;;16.66;15.23;101751.09;4485985;31;34360;-61
2022/03/21 11:20:52;;;;;;;;;;;;;;;16.85;15.09;101741.72;4478792;31;34586;-65
2022/03/21 11:23:25;;;;;;;;;;;;;;;15.65;15.55;101729.91;4486655;31;33413;-61
2022/03/21 11:26:15;;;;;;;;;;;;;;;16.53;14.54;101737.53;4485761;31;33712;-61
2022/03/21 11:29:05;;;;;;;;;;;;;;;15.68;15.29;101736.00;4485650;31;34223;-60
2022/03/21 11:31:39;;;;;;;;;;;;;;;15.59;14.61;101728.47;4485308;31;34323;-61
2022/03/21 11:34:11;;;;;;;;;;;;;;;15.83;15.09;101726.91;4501564;31;32173;-62
2022/03/21 11:36:52;;;;;;;;;;;;;;;15.45;15.09;101731.19;4489077;31;32877;-64
2022/03/21 11:39:23;;;;;;;;;;;;;;;15.20;15.45;101721.06;4491919;31;34420;-63
2022/03/21 11:41:59;;;;;;;;;;;;;;;15.63;15.00;101716.47;4497978;31;34288;-61
2022/03/21 11:44:29;;;;;;;;;;;;;;;16.20;14.70;101720.88;4484875;31;31926;-62
2022/03/21 11:47:17;;;;;;;;;;;;;;;16.01;14.90;101710.44;4472544;31;35343;-62
2022/03/21 11:49:55;;;;;;;;;;;;;;;16.16;15.28;101716.66;4485197;31;34389;-63
2022/03/21 11:52:28;;;;;;;;;;;;;;;15.19;15.58;101719.34;4484988;31;33229;-63
2022/03/21 11:55:01;;;;;;;;;;;;;;;15.96;15.23;101707.19;4471757;32;33754;-63
2022/03/21 11:57:31;;;;;;;;;;;;;;;16.26;14.92;101706.97;4475567;31;33303;-62
2022/03/21 12:00:04;;;;;;;;;;;;;;;15.90;14.73;101704.91;4475944;32;35491;-62
2022/03/21 12:02:39;;;;;;;;;;;;;;;16.80;15.01;101704.19;4478840;31;34511;-62
2022/03/21 12:05:09;;;;;;;;;;;;;;;16.27;14.84;101700.59;4482321;31;32923;-62
2022/03/21 12:07:41;;;;;;;;;;;;;;;16.63;15.00;101696.34;4482156;31;34377;-62
2022/03/21 12:10:11;;;;;;;;;;;;;;;16.83;14.20;101692.28;4485558;31;34509;-62
2022/03/21 12:12:41;;;;;;;;;;;;;;;16.30;14.99;101689.56;4478397;31;34304;-63
2022/03/21 12:15:19;;;;;;;;;;;;;;;16.49;14.43;101683.78;4483064;31;33132;-62
2022/03/21 12:17:52;;;;;;;;;;;;;;;16.94;14.79;101673.44;4484850;31;34960;-65
2022/03/21 12:20:26;;;;;;;;;;;;;;;16.45;14.51;101674.16;4485608;31;34081;-61
2022/03/21 12:23:14;;;;;;;;;;;;;;;16.58;14.68;101666.94;4481772;31;32688;-64
2022/03/21 12:25:50;;;;;;;;;;;;;;;15.75;15.03;101661.72;4481679;31;32316;-62
2022/03/21 12:31:23;;;;;;;;;;;;;;;16.81;14.84;101650.97;4487990;31;32384;-64
2022/03/21 12:34:03;;;;;;;;;;;;;;;16.68;14.21;101640.13;4485433;31;34305;-61
2022/03/21 12:36:34;;;;;;;;;;;;;;;16.93;15.58;101633.87;4471453;31;32005;-64
2022/03/21 12:39:04;;;;;;;;;;;;;;;15.87;15.15;101638.47;4486689;31;34035;-63
2022/03/21 12:41:33;;;;;;;;;;;;;;;15.49;16.23;101627.47;4475906;31;34249;-62
2022/03/21 12:44:04;;;;;;;;;;;;;;;16.13;15.28;101628.59;4479301;31;34276;-63
2022/03/21 12:46:32;;;;;;;;;;;;;;;15.70;15.97;101634.19;4485563;31;34463;-63
2022/03/21 12:49:00;;;;;;;;;;;;;;;15.79;17.87;101627.28;4475665;31;34457;-65
2022/03/21 12:51:29;;;;;;;;;;;;;;;16.41;15.60;101624.00;4483655;31;34158;-60
2022/03/21 12:54:17;;;;;;;;;;;;;;;15.48;15.15;101623.06;4486771;31;33158;-61
2022/03/21 12:56:45;;;;;;;;;;;;;;;15.02;16.17;101621.47;4494952;31;33501;-61
2022/03/21 12:59:13;;;;;;;;;;;;;;;15.75;17.19;101629.34;4491344;31;32670;-62
2022/03/21 13:01:42;;;;;;;;;;;;;;;16.11;15.54;101616.16;4488093;31;33952;-63
2022/03/21 13:12:34;;;;;;;;;;;;;;;15.81;15.15;101601.94;4486067;31;34184;-61
2022/03/21 13:15:09;;;;;;;;;;;;;;;15.96;14.74;101604.56;4489723;31;33814;-63
2022/03/21 13:17:43;;;;;;;;;;;;;;;16.23;14.78;101608.06;4485713;31;32159;-61
2022/03/21 13:20:13;;;;;;;;;;;;;;;15.59;15.07;101607.84;4485556;31;35388;-61
2022/03/21 13:22:41;;;;;;;;;;;;;;;16.17;14.29;101607.63;4486397;31;33233;-62
2022/03/21 13:25:23;;;;;;;;;;;;;;;17.29;13.62;101595.16;4468595;31;33727;-61
2022/03/21 13:27:52;;;;;;;;;;;;;;;17.01;13.85;101590.88;4483305;31;33792;-63
2022/03/21 13:30:19;;;;;;;;;;;;;;;16.13;14.38;101593.47;4484642;31;35808;-61
2022/03/21 13:32:48;;;;;;;;;;;;;;;16.69;13.87;101591.34;4484876;31;33570;-60
2022/03/21 13:35:16;;;;;;;;;;;;;;;16.76;14.98;101583.69;4483718;31;35089;-61